createdAt,value
2022-12-31T00:00:32.676Z,2.66
2022-12-31T00:03:35.238Z,2.63
2022-12-31T00:06:37.827Z,2.62
2022-12-31T00:09:40.759Z,2.66
2022-12-31T00:12:44.095Z,2.70
2022-12-31T00:15:47.013Z,2.71
2022-12-31T00:18:52.618Z,2.78
2022-12-31T00:21:55.020Z,2.75
2022-12-31T00:24:57.667Z,2.75
2022-12-31T00:28:00.122Z,2.75
2022-12-31T00:31:20.649Z,2.78
2022-12-31T00:34:23.646Z,2.81
2022-12-31T00:37:26.041Z,2.97
2022-12-31T00:40:29.747Z,3.08
2022-12-31T00:43:32.871Z,3.04
2022-12-31T00:49:40.097Z,2.95
2022-12-31T00:52:42.547Z,2.91
2022-12-31T00:55:45.183Z,2.89
2022-12-31T00:58:47.917Z,2.96
2022-12-31T01:01:50.700Z,2.99
2022-12-31T01:04:53.571Z,3.02
2022-12-31T01:07:56.184Z,2.97
2022-12-31T01:11:18.665Z,3.04
2022-12-31T01:14:21.470Z,3.04
2022-12-31T01:17:24.298Z,3.07
2022-12-31T01:20:27.856Z,3.01
2022-12-31T01:23:31.217Z,3.00
2022-12-31T01:26:33.939Z,3.09
2022-12-31T01:29:36.389Z,2.95
2022-12-31T01:32:39.102Z,2.95
2022-12-31T01:35:41.831Z,3.07
2022-12-31T01:38:44.818Z,2.96
2022-12-31T01:41:47.882Z,2.97
2022-12-31T01:44:54.371Z,3.11
2022-12-31T01:47:59.698Z,3.05
2022-12-31T01:51:02.420Z,2.93
2022-12-31T01:54:08.369Z,3.02
2022-12-31T01:57:11.860Z,2.93
2022-12-31T02:00:14.798Z,2.95
2022-12-31T02:03:22.627Z,2.93
2022-12-31T02:07:05.218Z,3.10
2022-12-31T02:10:08.080Z,2.97
2022-12-31T02:13:11.203Z,2.93
2022-12-31T02:16:27.956Z,2.89
2022-12-31T02:19:49.243Z,2.93
2022-12-31T02:23:06.472Z,3.01
2022-12-31T02:26:14.999Z,3.06
2022-12-31T02:29:55.341Z,2.99
2022-12-31T02:33:04.716Z,3.02
2022-12-31T02:36:14.817Z,3.01
2022-12-31T02:39:18.462Z,2.97
2022-12-31T02:42:20.854Z,3.00
2022-12-31T02:45:29.712Z,3.04
2022-12-31T02:48:47.282Z,3.01
2022-12-31T02:51:54.301Z,2.98
2022-12-31T02:55:21.965Z,3.06
2022-12-31T02:59:09.959Z,3.12
2022-12-31T03:02:19.591Z,2.88
2022-12-31T03:05:27.104Z,3.11
2022-12-31T03:08:31.191Z,3.05
2022-12-31T03:11:52.852Z,2.97
2022-12-31T03:14:55.485Z,3.01
2022-12-31T03:18:01.533Z,3.01
2022-12-31T03:21:29.767Z,2.99
2022-12-31T03:24:51.038Z,2.89
2022-12-31T03:27:54.259Z,2.84
2022-12-31T03:30:59.781Z,2.91
2022-12-31T03:34:02.524Z,3.08
2022-12-31T03:37:04.942Z,3.08
2022-12-31T03:40:09.458Z,3.01
2022-12-31T03:43:14.885Z,2.98
2022-12-31T03:46:17.292Z,3.02
2022-12-31T03:49:20.074Z,2.98
2022-12-31T03:52:23.146Z,2.97
2022-12-31T03:55:26.104Z,2.96
2022-12-31T03:58:28.688Z,2.95
2022-12-31T04:01:31.272Z,3.01
2022-12-31T04:04:34.255Z,3.04
2022-12-31T04:07:36.770Z,3.01
2022-12-31T04:10:39.453Z,3.00
2022-12-31T04:13:42.118Z,3.06
2022-12-31T04:16:45.626Z,3.06
2022-12-31T04:19:49.049Z,3.02
2022-12-31T04:22:51.502Z,2.95
2022-12-31T04:25:54.311Z,2.87
2022-12-31T04:28:57.029Z,2.88
2022-12-31T04:31:59.559Z,2.86
2022-12-31T04:35:02.297Z,2.96
2022-12-31T04:38:04.960Z,2.91
2022-12-31T04:41:20.942Z,2.87
2022-12-31T04:44:23.655Z,2.88
2022-12-31T04:47:27.391Z,2.86
2022-12-31T04:50:31.237Z,2.87
2022-12-31T04:53:33.796Z,2.94
2022-12-31T04:56:36.771Z,2.87
2022-12-31T04:59:39.973Z,2.88
2022-12-31T05:02:42.560Z,2.86
2022-12-31T05:05:45.371Z,2.95
2022-12-31T05:08:48.818Z,3.01
2022-12-31T05:11:51.492Z,2.98
2022-12-31T05:14:54.145Z,2.90
2022-12-31T05:17:56.770Z,2.96
2022-12-31T05:20:59.897Z,2.90
2022-12-31T05:24:02.501Z,2.87
2022-12-31T05:27:05.180Z,2.88
2022-12-31T05:30:08.318Z,2.89
2022-12-31T05:33:11.048Z,2.89
2022-12-31T05:36:14.718Z,2.83
2022-12-31T05:39:18.466Z,3.00
2022-12-31T05:42:21.803Z,2.89
2022-12-31T05:45:30.408Z,2.93
2022-12-31T05:48:33.605Z,3.00
2022-12-31T05:51:36.431Z,2.91
2022-12-31T05:54:38.843Z,2.94
2022-12-31T05:57:41.673Z,2.94
2022-12-31T06:00:44.906Z,2.90
2022-12-31T06:03:47.446Z,2.94
2022-12-31T06:06:50.410Z,2.87
2022-12-31T06:09:52.955Z,2.88
2022-12-31T06:12:56.368Z,2.90
2022-12-31T06:16:04.435Z,2.98
2022-12-31T06:19:07.433Z,2.95
2022-12-31T06:22:10.662Z,3.00
2022-12-31T06:25:13.149Z,2.99
2022-12-31T06:28:20.048Z,2.93
2022-12-31T06:31:23.495Z,2.97
2022-12-31T06:34:26.000Z,2.91
2022-12-31T06:37:28.759Z,2.89
2022-12-31T06:40:31.193Z,2.91
2022-12-31T06:43:35.198Z,2.94
2022-12-31T06:46:38.023Z,2.93
2022-12-31T06:49:40.894Z,2.89
2022-12-31T06:52:43.964Z,2.89
2022-12-31T06:55:48.816Z,2.90
2022-12-31T06:58:52.447Z,2.95
2022-12-31T07:02:20.397Z,2.94
2022-12-31T07:05:32.629Z,2.95
2022-12-31T07:08:37.959Z,2.97
2022-12-31T07:12:20.622Z,3.03
2022-12-31T07:15:41.144Z,3.05
2022-12-31T07:18:51.276Z,3.04
2022-12-31T07:21:56.786Z,3.07
2022-12-31T07:25:00.128Z,3.08
2022-12-31T07:28:15.794Z,3.09
2022-12-31T07:31:49.369Z,3.11
2022-12-31T07:35:10.927Z,3.11
2022-12-31T07:38:41.465Z,3.12
2022-12-31T07:41:44.501Z,3.14
2022-12-31T07:45:20.794Z,3.19
2022-12-31T07:48:26.626Z,3.22
2022-12-31T07:51:29.773Z,3.28
2022-12-31T07:54:32.485Z,3.31
2022-12-31T07:57:43.419Z,3.33
2022-12-31T08:00:46.402Z,3.41
2022-12-31T08:03:57.697Z,3.54
2022-12-31T08:07:28.121Z,3.54
2022-12-31T08:10:34.308Z,3.63
2022-12-31T08:13:37.634Z,3.62
2022-12-31T08:16:40.445Z,3.64
2022-12-31T08:19:43.940Z,3.60
2022-12-31T08:23:17.659Z,3.68
2022-12-31T08:26:34.448Z,3.72
2022-12-31T08:30:04.014Z,3.75
2022-12-31T08:33:06.525Z,3.90
2022-12-31T08:36:50.241Z,3.94
2022-12-31T08:40:00.568Z,3.91
2022-12-31T08:43:25.101Z,3.93
2022-12-31T08:46:53.643Z,3.98
2022-12-31T08:49:56.580Z,3.95
2022-12-31T08:52:59.743Z,3.93
2022-12-31T08:56:27.942Z,3.96
2022-12-31T09:00:05.291Z,4.08
2022-12-31T09:03:30.801Z,4.08
2022-12-31T09:06:56.348Z,3.98
2022-12-31T09:10:16.908Z,4.05
2022-12-31T09:13:40.357Z,4.23
2022-12-31T09:16:56.552Z,4.30
2022-12-31T09:19:59.395Z,4.13
2022-12-31T09:23:02.976Z,3.92
2022-12-31T09:26:17.226Z,3.98
2022-12-31T09:29:44.478Z,3.98
2022-12-31T09:33:06.678Z,4.00
2022-12-31T09:36:19.355Z,4.14
2022-12-31T09:39:27.986Z,4.26
2022-12-31T09:42:59.212Z,4.23
2022-12-31T09:46:32.633Z,4.33
2022-12-31T09:49:55.363Z,4.33
2022-12-31T09:52:58.092Z,4.39
2022-12-31T09:56:15.483Z,4.24
2022-12-31T09:59:28.226Z,4.35
2022-12-31T10:03:05.165Z,4.26
2022-12-31T10:06:26.216Z,4.34
2022-12-31T10:09:55.464Z,4.58
2022-12-31T10:13:29.099Z,4.57
2022-12-31T10:16:53.320Z,4.46
2022-12-31T10:20:19.999Z,4.38
2022-12-31T10:23:38.048Z,4.42
2022-12-31T10:26:59.444Z,4.41
2022-12-31T10:30:20.755Z,4.36
2022-12-31T10:33:53.978Z,4.31
2022-12-31T10:37:18.193Z,4.42
2022-12-31T10:40:25.480Z,4.51
2022-12-31T10:43:48.937Z,4.38
2022-12-31T10:47:13.986Z,4.40
2022-12-31T10:50:47.597Z,4.31
2022-12-31T10:53:59.022Z,4.21
2022-12-31T10:57:29.661Z,4.14
2022-12-31T11:00:43.145Z,4.18
2022-12-31T11:04:22.973Z,4.17
2022-12-31T11:08:00.564Z,4.14
2022-12-31T11:11:14.054Z,4.22
2022-12-31T11:14:31.511Z,4.15
2022-12-31T11:17:48.973Z,4.18
2022-12-31T11:21:21.620Z,4.15
2022-12-31T11:24:37.169Z,4.11
2022-12-31T11:28:11.403Z,4.09
2022-12-31T11:31:49.699Z,4.12
2022-12-31T11:34:55.017Z,4.27
2022-12-31T11:38:24.781Z,4.15
2022-12-31T11:41:27.482Z,4.20
2022-12-31T11:45:02.384Z,4.19
2022-12-31T11:48:30.249Z,4.32
2022-12-31T11:52:10.472Z,4.29
2022-12-31T11:55:19.351Z,4.37
2022-12-31T11:58:28.623Z,4.38
2022-12-31T12:01:41.885Z,4.43
2022-12-31T12:04:48.474Z,4.39
2022-12-31T12:07:52.228Z,4.47
2022-12-31T12:11:04.032Z,4.40
2022-12-31T12:14:32.867Z,4.49
2022-12-31T12:17:35.670Z,4.44
2022-12-31T12:20:41.397Z,4.38
2022-12-31T12:24:16.509Z,4.46
2022-12-31T12:27:30.312Z,4.33
2022-12-31T12:30:38.508Z,4.34
2022-12-31T12:33:46.448Z,4.13
2022-12-31T12:36:49.031Z,4.13
2022-12-31T12:39:58.097Z,4.18
2022-12-31T12:43:02.737Z,4.17
2022-12-31T12:46:17.941Z,4.16
2022-12-31T12:49:37.551Z,4.13
2022-12-31T12:53:17.365Z,4.19
2022-12-31T12:56:35.204Z,4.29
2022-12-31T12:59:47.592Z,4.34
2022-12-31T13:03:02.388Z,4.38
2022-12-31T13:06:27.813Z,4.45
2022-12-31T13:09:44.865Z,4.29
2022-12-31T13:13:23.847Z,4.33
2022-12-31T13:16:33.219Z,4.37
2022-12-31T13:19:45.049Z,4.38
2022-12-31T13:23:01.032Z,4.42
2022-12-31T13:26:06.184Z,4.40
2022-12-31T13:29:18.892Z,4.44
2022-12-31T13:32:28.166Z,4.50
2022-12-31T13:35:38.119Z,4.52
2022-12-31T13:38:52.953Z,4.50
2022-12-31T13:41:59.088Z,4.57
2022-12-31T13:45:10.273Z,4.59
2022-12-31T13:48:21.989Z,4.56
2022-12-31T13:51:35.482Z,4.68
2022-12-31T13:55:05.300Z,4.63
2022-12-31T13:58:26.102Z,4.69
2022-12-31T14:01:34.131Z,4.81
2022-12-31T14:04:42.586Z,4.80
2022-12-31T14:07:53.942Z,4.65
2022-12-31T14:11:18.911Z,4.52
2022-12-31T14:14:21.326Z,4.49
2022-12-31T14:17:40.182Z,4.54
2022-12-31T14:20:58.429Z,4.59
2022-12-31T14:24:15.931Z,4.56
2022-12-31T14:27:27.069Z,4.64
2022-12-31T14:30:36.688Z,4.64
2022-12-31T14:34:01.931Z,4.63
2022-12-31T14:37:42.758Z,4.59
2022-12-31T14:41:10.290Z,4.69
2022-12-31T14:44:12.704Z,4.59
2022-12-31T14:47:40.938Z,4.59
2022-12-31T14:50:46.070Z,4.63
2022-12-31T14:53:53.576Z,4.61
2022-12-31T14:56:56.140Z,4.58
2022-12-31T15:00:00.907Z,4.53
2022-12-31T15:03:15.534Z,4.43
2022-12-31T15:06:24.304Z,4.54
2022-12-31T15:09:48.693Z,4.53
2022-12-31T15:13:12.944Z,4.44
2022-12-31T15:16:34.451Z,4.47
2022-12-31T15:20:14.992Z,4.49
2022-12-31T15:23:25.758Z,4.46
2022-12-31T15:26:31.552Z,4.42
2022-12-31T15:29:42.712Z,4.45
2022-12-31T15:32:47.460Z,4.43
2022-12-31T15:35:56.079Z,4.46
2022-12-31T15:39:19.654Z,4.47
2022-12-31T15:42:49.132Z,4.54
2022-12-31T15:45:56.102Z,4.49
2022-12-31T15:49:16.008Z,4.48
2022-12-31T15:52:25.181Z,4.43
2022-12-31T15:55:38.643Z,4.40
2022-12-31T15:58:41.506Z,4.38
2022-12-31T16:01:45.639Z,4.36
2022-12-31T16:04:50.035Z,4.33
2022-12-31T16:08:01.730Z,4.33
2022-12-31T16:11:05.859Z,4.33
2022-12-31T16:14:19.373Z,4.31
2022-12-31T16:17:30.562Z,4.30
2022-12-31T16:20:34.768Z,4.26
2022-12-31T16:23:42.167Z,4.25
2022-12-31T16:26:52.087Z,4.26
2022-12-31T16:30:16.398Z,4.32
2022-12-31T16:33:19.150Z,4.31
2022-12-31T16:36:23.926Z,4.30
2022-12-31T16:39:38.973Z,4.26
2022-12-31T16:42:44.441Z,4.34
2022-12-31T16:45:47.434Z,4.31
2022-12-31T16:48:54.242Z,4.27
2022-12-31T16:52:21.201Z,4.25
2022-12-31T16:55:29.435Z,4.22
2022-12-31T16:58:36.555Z,4.21
2022-12-31T17:01:39.918Z,4.19
2022-12-31T17:04:55.388Z,4.21
2022-12-31T17:08:22.779Z,4.22
2022-12-31T17:11:34.365Z,4.21
2022-12-31T17:14:49.959Z,4.21
2022-12-31T17:18:02.795Z,4.17
2022-12-31T17:21:09.095Z,4.15
2022-12-31T17:24:13.612Z,4.19
2022-12-31T17:27:16.605Z,4.17
2022-12-31T17:30:22.060Z,4.14
2022-12-31T17:33:25.163Z,4.17
2022-12-31T17:36:27.713Z,4.21
2022-12-31T17:39:44.409Z,4.18
2022-12-31T17:42:46.878Z,4.15
2022-12-31T17:45:54.345Z,4.15
2022-12-31T17:49:01.817Z,4.15
2022-12-31T17:52:04.458Z,4.13
2022-12-31T17:55:07.703Z,4.16
2022-12-31T17:58:26.141Z,4.18
2022-12-31T18:01:32.172Z,4.25
2022-12-31T18:04:34.905Z,4.25
2022-12-31T18:07:37.593Z,4.25
2022-12-31T18:10:41.975Z,4.26
2022-12-31T18:13:44.940Z,4.27
2022-12-31T18:16:48.343Z,4.29
2022-12-31T18:20:06.752Z,4.26
2022-12-31T18:23:27.646Z,4.19
2022-12-31T18:26:32.692Z,4.15
2022-12-31T18:29:35.203Z,4.24
2022-12-31T18:32:38.944Z,4.15
2022-12-31T18:36:17.062Z,4.07
2022-12-31T18:39:05.688Z,4.00
2022-12-31T18:42:13.603Z,4.10
2022-12-31T18:45:19.400Z,4.07
2022-12-31T18:48:22.246Z,4.00
2022-12-31T18:51:31.479Z,3.91
2022-12-31T18:54:34.648Z,3.95
2022-12-31T18:57:37.516Z,3.93
2022-12-31T19:00:40.310Z,3.97
2022-12-31T19:03:43.177Z,3.99
2022-12-31T19:06:46.879Z,4.00
2022-12-31T19:09:54.622Z,4.09
2022-12-31T19:13:01.097Z,4.04
2022-12-31T19:16:03.646Z,3.97
2022-12-31T19:19:08.687Z,4.07
2022-12-31T19:22:15.406Z,4.03
2022-12-31T19:25:26.977Z,3.97
2022-12-31T19:28:29.626Z,3.89
2022-12-31T19:31:32.157Z,3.76
2022-12-31T19:34:34.961Z,3.72
2022-12-31T19:37:37.905Z,3.63
2022-12-31T19:40:41.181Z,3.56
2022-12-31T19:43:44.712Z,3.54
2022-12-31T19:46:47.361Z,3.52
2022-12-31T19:49:50.018Z,3.44
2022-12-31T19:52:55.044Z,3.46
2022-12-31T19:55:57.528Z,3.42
2022-12-31T19:59:07.428Z,3.45
2022-12-31T20:02:10.429Z,3.38
2022-12-31T20:05:15.384Z,3.33
2022-12-31T20:08:20.313Z,3.27
2022-12-31T20:11:24.456Z,3.39
2022-12-31T20:14:26.950Z,3.40
2022-12-31T20:17:29.869Z,3.39
2022-12-31T20:20:32.428Z,3.33
2022-12-31T20:23:35.189Z,3.33
2022-12-31T20:26:37.719Z,3.37
2022-12-31T20:29:41.058Z,3.41
2022-12-31T20:32:43.478Z,3.44
2022-12-31T20:35:46.282Z,3.44
2022-12-31T20:38:49.331Z,3.54
2022-12-31T20:41:51.803Z,3.52
2022-12-31T20:44:54.930Z,3.56
2022-12-31T20:47:57.625Z,3.53
2022-12-31T20:51:00.321Z,3.60
2022-12-31T20:54:06.040Z,3.61
2022-12-31T20:57:08.457Z,3.62
2022-12-31T21:00:12.500Z,3.68
2022-12-31T21:03:53.514Z,3.73
2022-12-31T21:06:38.057Z,3.73
2022-12-31T21:09:40.741Z,3.72
2022-12-31T21:12:43.559Z,3.69
2022-12-31T21:15:50.433Z,3.72
2022-12-31T21:18:54.162Z,3.72
2022-12-31T21:21:56.734Z,3.75
2022-12-31T21:25:01.250Z,3.73
2022-12-31T21:28:03.915Z,3.82
2022-12-31T21:31:08.072Z,3.73
2022-12-31T21:34:10.629Z,3.71
2022-12-31T21:37:13.322Z,3.74
2022-12-31T21:40:18.466Z,3.65
2022-12-31T21:43:21.110Z,3.76
2022-12-31T21:46:23.977Z,3.67
2022-12-31T21:49:26.731Z,3.64
2022-12-31T21:52:31.701Z,3.59
2022-12-31T21:55:56.294Z,3.59
2022-12-31T21:59:17.389Z,3.63
2022-12-31T22:02:39.100Z,3.61
2022-12-31T22:06:12.206Z,3.58
2022-12-31T22:09:15.251Z,3.61
2022-12-31T22:12:18.009Z,3.54
2022-12-31T22:15:20.575Z,3.54
2022-12-31T22:18:23.682Z,3.54
2022-12-31T22:21:26.779Z,3.55
2022-12-31T22:24:29.675Z,3.59
2022-12-31T22:27:32.351Z,3.59
2022-12-31T22:30:34.973Z,3.62
2022-12-31T22:33:38.072Z,3.59
2022-12-31T22:36:40.670Z,3.60
2022-12-31T22:39:45.058Z,3.63
2022-12-31T22:42:48.100Z,3.61
2022-12-31T22:45:50.515Z,3.61
2022-12-31T22:48:54.768Z,3.60
2022-12-31T22:51:59.923Z,3.61
2022-12-31T22:55:06.120Z,3.59
2022-12-31T22:58:08.573Z,3.59
2022-12-31T23:01:16.119Z,3.56
2022-12-31T23:04:18.745Z,3.48
2022-12-31T23:07:21.453Z,3.45
2022-12-31T23:10:42.341Z,3.47
2022-12-31T23:14:03.959Z,3.48
2022-12-31T23:17:29.835Z,3.49
2022-12-31T23:20:52.796Z,3.51
2022-12-31T23:23:55.561Z,3.45
2022-12-31T23:26:58.674Z,3.43
2022-12-31T23:30:01.393Z,3.48
2022-12-31T23:33:03.990Z,3.54
2022-12-31T23:36:07.096Z,3.54
2022-12-31T23:39:10.386Z,3.53
2022-12-31T23:42:12.988Z,3.53
2022-12-31T23:45:16.001Z,3.53
2022-12-31T23:48:18.664Z,3.53
2022-12-31T23:51:21.896Z,3.52
2022-12-31T23:54:24.279Z,3.52
2022-12-31T23:57:26.989Z,3.49
